Michigan Logo

Waterford, MI Single Family Real Estate Listings

157 Total Real Estate Listings * Click on table heading to sort
Date Posted Property Type Style Address Price Living Area Lot Size Price/Sq Ft.
2018-07-19 Single Family Ranch 5555 Elizabeth Lake Road Waterford, MI 48327 $249,900 1,658 sq. ft. 2,178,000 sq. ft. $151
2018-07-19 Single Family Ranch 3792 Embarcadero Street Waterford, MI 48329 $184,900 1,088 sq. ft. 11,326 sq. ft. $170
2018-07-18 Single Family Bungalow 5610 Croswell Road Waterford, MI 48327 $225,000 1,630 sq. ft. 130,680 sq. ft. $138
2018-07-18 Single Family 4017 Chenlot Lane Waterford, MI 48328 $199,900 1,313 sq. ft. 6,098 sq. ft. $152
2018-07-18 Single Family Cape Cod 2937 Old Orchard Drive Waterford, MI 48328 $174,900 1,600 sq. ft. 15,682 sq. ft. $109
2018-07-18 Single Family Bungalow 4204 Lotus Drive Waterford, MI 48329 $145,000 1,020 sq. ft. 10,019 sq. ft. $142
2018-07-18 Single Family Bungalow 7021 Williams Lake Road Waterford, MI 48329 $164,900 1,299 sq. ft. 15,246 sq. ft. $127
2018-07-18 Single Family Ranch 3998 Letart Avenue Waterford, MI 48329 $150,000 1,369 sq. ft. 10,019 sq. ft. $110
2018-07-18 Single Family Bungalow 2988 Huron Street Waterford, MI 48328 $144,700 946 sq. ft. 14,375 sq. ft. $153
2018-07-18 Single Family Raised Ranch 2340 Winkleman Drive Waterford, MI 48329 $289,900 1,504 sq. ft. 30,928 sq. ft. $193
2018-07-17 Single Family Colonial 1171 Meadowood Drive Waterford, MI 48327 $199,900 1,700 sq. ft. 10,019 sq. ft. $118
2018-07-17 Single Family Bungalow 4839 Cass Elizabeth Road Waterford, MI 48327 $149,900 1,760 sq. ft. 15,682 sq. ft. $85
2018-07-17 Single Family Ranch 5690 Berkley Drive Waterford, MI 48327 $112,000 656 sq. ft. 9,148 sq. ft. $171
2018-07-17 Single Family Ranch 5555 Elizabeth Lake Road Waterford, MI 48327 $265,000 1,658 sq. ft. 2,178,000 sq. ft. $160
2018-07-17 Single Family Colonial 4163 Lanco Court Waterford, MI 48329 $200,000 2,334 sq. ft. $86
2018-07-17 Single Family Ranch 7817 Hoffman Drive Waterford, MI 48327 $260,000 1,538 sq. ft. 15,246 sq. ft. $169
2018-07-17 Single Family Colonial 673 Woodcreek Drive Waterford, MI 48327 $265,000 2,370 sq. ft. $112
2018-07-16 Single Family Raised Ranch 3940 Sashabaw Road Waterford, MI 48329 $200,000 1,700 sq. ft. 6,098 sq. ft. $118
2018-07-16 Single Family Ranch 2696 Mott Avenue Waterford, MI 48328 $149,900 1,190 sq. ft. 10,890 sq. ft. $126
2018-07-16 Single Family Ranch 3903 Aquarina Street Waterford, MI 48329 $159,900 1,297 sq. ft. 11,326 sq. ft. $123
2018-07-15 Single Family Colonial 2816 Moosewood Drive Waterford, MI 48329 $289,900 2,000 sq. ft. $145
2018-07-15 Single Family Bungalow 4415 Walton Boulevard Waterford, MI 48329 $109,900 980 sq. ft. 5,227 sq. ft. $112
2018-07-15 Single Family Ranch 2826 Moosewood Drive Waterford, MI 48329 $284,900 1,550 sq. ft. $184
2018-07-14 Single Family Ranch 4140 Lotus Drive Waterford, MI 48329 $145,000 1,037 sq. ft. $140
2018-07-14 Single Family Colonial 4025 Rich Drive Waterford, MI 48329 $499,900 3,391 sq. ft. $147
2018-07-14 Single Family Ranch 217 Reymont Road Waterford, MI 48327 $299,000 1,192 sq. ft. 10,454 sq. ft. $251
2018-07-14 Single Family Colonial 5729 Coach House Court Waterford, MI 48327 $225,000 2,003 sq. ft. 10,454 sq. ft. $112
2018-07-13 Single Family Ranch 6700 Saline Drive Waterford, MI 48329 $144,900 960 sq. ft. 6,970 sq. ft. $151
2018-07-13 Single Family Colonial 2837 Birchwood Drive Waterford, MI 48329 $239,900 1,849 sq. ft. 9,583 sq. ft. $130
2018-07-13 Single Family Colonial 3199 Indianview Drive Waterford, MI 48329 $335,000 3,111 sq. ft. 16,988 sq. ft. $108
2018-07-13 Single Family Bungalow 4062 Lanark Avenue Waterford, MI 48328 $140,000 1,531 sq. ft. 5,227 sq. ft. $91
2018-07-12 Single Family Ranch 2878 Buick Avenue Waterford, MI 48328 $135,000 1,020 sq. ft. 4,792 sq. ft. $132
2018-07-12 Single Family Ranch 5139 Reymont Road Waterford, MI 48327 $147,000 896 sq. ft. 6,098 sq. ft. $164
2018-07-12 Single Family Ranch 5775 Opaline Drive Waterford, MI 48327 $199,900 2,032 sq. ft. 19,166 sq. ft. $98
2018-07-12 Single Family 4050 Aquarina Street Waterford, MI 48329 $350,000 2,284 sq. ft. 11,326 sq. ft. $153
2018-07-12 Single Family Ranch 7760 Maceday Lake Road Waterford, MI 48329 $194,900 1,092 sq. ft. 19,602 sq. ft. $178
2018-07-11 Single Family Colonial 7602 Ring Neck Waterford, MI 48327 $299,900 1,920 sq. ft. $156
2018-07-10 Single Family Colonial 482 River Ridge Drive Waterford, MI 48327 $274,900 2,309 sq. ft. 13,068 sq. ft. $119
2018-07-10 Single Family Ranch 1375 Nokomis Way Waterford, MI 48328 $175,000 1,255 sq. ft. 10,890 sq. ft. $139
2018-07-10 Single Family Contemporary 3885 Florine Waterford, MI 48329 $315,000 2,280 sq. ft. 11,761 sq. ft. $138
2018-07-10 Single Family Contemporary 1776 Eason Waterford, MI 48328 $445,000 3,231 sq. ft. 6,534 sq. ft. $138
2018-07-10 Single Family Ranch 4097 Woodmont Drive Waterford, MI 48329 $214,900 1,841 sq. ft. 12,632 sq. ft. $117
2018-07-10 Single Family Ranch 2121 Highfield Road Waterford, MI 48329 $196,000 1,066 sq. ft. 13,939 sq. ft. $184
2018-07-10 Single Family Colonial 43 Cascade Waterford, MI 48327 $239,900 1,816 sq. ft. 6,970 sq. ft. $132
2018-07-09 Single Family Colonial 350 Lamothe Drive Waterford, MI 48327 $299,900 1,325 sq. ft. 13,068 sq. ft. $226
2018-07-09 Single Family Colonial 5038 Durnham Drive Waterford, MI 48327 $599,900 2,094 sq. ft. 8,276 sq. ft. $286
2018-07-09 Single Family Colonial 1492 Stauch Drive Waterford, MI 48324 $329,900 2,633 sq. ft. 9,583 sq. ft. $125
2018-07-09 Single Family Colonial; Contemporary 1219 Forest Bay Drive Waterford, MI 48328 $379,000 2,700 sq. ft. 7,841 sq. ft. $140
2018-07-06 Single Family Ranch 2303 Kohler Street Waterford, MI 48329 $158,900 925 sq. ft. 14,375 sq. ft. $172
2018-07-06 Single Family Contemporary 2622 Onagon Trail Waterford, MI 48328 $215,000 1,760 sq. ft. 10,454 sq. ft. $122
2018-07-05 Single Family Contemporary 4071 Lotus Drive Waterford, MI 48329 $949,900 4,030 sq. ft. 19,602 sq. ft. $236
2018-07-05 Single Family Ranch 3096 Warren Drive Waterford, MI 48329 $64,900 656 sq. ft. 10,019 sq. ft. $99
2018-07-05 Single Family Contemporary 4409 Forest Avenue Waterford, MI 48328 $599,000 2,758 sq. ft. 6,098 sq. ft. $217
2018-07-04 Single Family 2771 Ravenglass Road Waterford, MI 48329 $185,000 1,346 sq. ft. 12,197 sq. ft. $137
2018-07-03 Single Family Colonial 5713 Prentice Road Waterford, MI 48327 $195,000 2,024 sq. ft. 6,970 sq. ft. $96
2018-07-03 Single Family Cape Cod 4983 Coshocton Drive Waterford, MI 48327 $499,990 2,268 sq. ft. 6,970 sq. ft. $220
2018-07-02 Single Family 2688 Tomahawk Court Waterford, MI 48328 $225,000 1,929 sq. ft. 11,326 sq. ft. $117
2018-07-02 Single Family Colonial 7290 Williams Lake Road Waterford, MI 48329 $675,000 3,444 sq. ft. 16,553 sq. ft. $196
2018-07-02 Single Family Colonial 3437 Walton Boulevard Waterford, MI 48329 $299,900 2,608 sq. ft. 17,860 sq. ft. $115
2018-07-02 Single Family Colonial 1406 Forest Bay Drive Waterford, MI 48328 $599,900 4,288 sq. ft. $140
2018-07-02 Single Family Ranch 2571 Oakdale Drive Waterford, MI 48329 $149,900 1,320 sq. ft. 16,553 sq. ft. $114
2018-07-01 Single Family Colonial 1187 Meadowcrest Waterford, MI 48327 $259,900 1,809 sq. ft. 10,019 sq. ft. $144
2018-06-30 Single Family 4960 Cooley Lake Road Waterford, MI 48327 $269,000 2,013 sq. ft. 7,841 sq. ft. $134
2018-06-30 Single Family Ranch 454 Gateway Drive Waterford, MI 48328 $130,000 768 sq. ft. 6,098 sq. ft. $169
2018-06-29 Single Family 5405 Brunswick Boulevard Waterford, MI 48327 $180,000 1,633 sq. ft. 7,405 sq. ft. $110
2018-06-29 Single Family Ranch 1149 Boston Waterford, MI 48328 $150,000 1,000 sq. ft. 7,841 sq. ft. $150
2018-06-29 Single Family Colonial 7815 Oakland Manor Drive Waterford, MI 48327 $289,000 2,188 sq. ft. $132
2018-06-29 Single Family Ranch 1205 Lynsue Lane Waterford, MI 48327 $129,900 1,578 sq. ft. 11,326 sq. ft. $82
2018-06-29 Single Family Colonial 6330 Hatchery Road Waterford, MI 48329 $184,900 1,552 sq. ft. 5,663 sq. ft. $119
2018-06-29 Single Family Ranch 2854 Moosewood Waterford, MI 48329 $274,900 1,550 sq. ft. $177
2018-06-28 Single Family Ranch 4468 Louella Drive Waterford, MI 48329 $120,000 600 sq. ft. 5,227 sq. ft. $200
2018-06-28 Single Family Ranch 3435 Signet Waterford, MI 48329 $98,900 733 sq. ft. 6,098 sq. ft. $135
2018-06-27 Single Family 6229 Jameson Drive Waterford, MI 48329 $156,900 2,334 sq. ft. 14,810 sq. ft. $67
2018-06-27 Single Family Bungalow 4110 Quillen Avenue Waterford, MI 48329 $155,000 1,267 sq. ft. 5,663 sq. ft. $122
2018-06-26 Single Family 3647 Meadowleigh Lane Waterford, MI 48329 $209,900 1,812 sq. ft. 14,375 sq. ft. $116
2018-06-26 Single Family Colonial 3806 Island Park Waterford, MI 48329 $599,000 2,541 sq. ft. 6,098 sq. ft. $236
2018-06-26 Single Family Ranch 4195 Westridge Pl Waterford, MI 48329 $219,500 1,471 sq. ft. 18,295 sq. ft. $149
2018-06-26 Single Family Colonial 93 Donna Court Waterford, MI 48327 $288,000 1,978 sq. ft. $146
2018-06-26 Single Family Ranch 6464 Crest Drive Waterford, MI 48329 $239,900 1,667 sq. ft. 14,810 sq. ft. $144
2018-06-22 Single Family Ranch 1227 Alhi Street Waterford, MI 48328 $184,000 1,008 sq. ft. 14,810 sq. ft. $183
2018-06-21 Single Family Ranch 656 Reynolds Drive Waterford, MI 48328 $225,000 1,937 sq. ft. 40,946 sq. ft. $116
2018-06-20 Single Family Colonial; Farmhouse 3550 Watkins Lake Road Waterford, MI 48328 $199,900 1,536 sq. ft. 87,120 sq. ft. $130
2018-06-20 Single Family Colonial 3138 Shawnee Lane Waterford, MI 48329 $239,900 2,421 sq. ft. 15,682 sq. ft. $99
2018-06-20 Single Family Colonial 2587 Lovington Lane Waterford, MI 48329 $249,900 2,104 sq. ft. 10,890 sq. ft. $119
2018-06-18 Single Family Colonial 1081 Genella Street Waterford, MI 48328 $185,000 1,367 sq. ft. 17,860 sq. ft. $135
2018-06-18 Single Family Colonial 2934 Tuxedo Boulevard Waterford, MI 48329 $289,000 1,387 sq. ft. 10,890 sq. ft. $208
2018-06-18 Single Family Bungalow 4909 Fiddle Avenue Waterford, MI 48328 $169,000 1,256 sq. ft. 9,148 sq. ft. $135
2018-06-18 Single Family Colonial 2871 Sunderland Waterford, MI 48329 $309,000 1,900 sq. ft. $163
2018-06-17 Single Family Contemporary 3489 Lakeshore Waterford, MI 48329 $279,900 1,900 sq. ft. 10,454 sq. ft. $147
2018-06-16 Single Family Bungalow 1201 Beachland Boulevard Waterford, MI 48328 $225,000 991 sq. ft. 6,098 sq. ft. $227
2018-06-15 Single Family Ranch 2030 Oakdale Drive Waterford, MI 48329 $139,900 1,572 sq. ft. 16,553 sq. ft. $89
2018-06-15 Single Family Colonial 2985 Pontiac Lake Road Waterford, MI 48328 $129,900 1,772 sq. ft. 25,700 sq. ft. $73
2018-06-15 Single Family Bungalow 5733 Crescent Road Waterford, MI 48327 $179,900 1,596 sq. ft. 12,632 sq. ft. $113
2018-06-14 Single Family Colonial 3153 Mcdowell Drive Waterford, MI 48328 $549,900 2,572 sq. ft. 13,068 sq. ft. $214
2018-06-13 Single Family Ranch 2366 Highfield Road Waterford, MI 48329 $260,000 1,642 sq. ft. 12,197 sq. ft. $158
2018-06-13 Single Family Colonial 6839 Brightwood Court Waterford, MI 48327 $349,900 2,992 sq. ft. 9,583 sq. ft. $117
2018-06-12 Single Family Raised Ranch 1145 Parkway Waterford, MI 48328 $225,000 1,846 sq. ft. 12,197 sq. ft. $122
2018-06-09 Single Family Bungalow 205 Scott Lake Road Waterford, MI 48328 $119,950 1,003 sq. ft. 6,970 sq. ft. $120
2018-06-08 Single Family Colonial 1770 Eason Road Waterford, MI 48328 $719,000 3,104 sq. ft. 10,019 sq. ft. $232
2018-06-08 Single Family Bungalow 110 Exmoor Rd Waterford, MI 48328 $179,900 1,300 sq. ft. 7,841 sq. ft. $138
2018-06-07 Single Family Colonial 376 Quail Ridge Court Waterford, MI 48327 $234,500 1,746 sq. ft. 12,197 sq. ft. $134
2018-06-07 Single Family Colonial 5997 Coppersmith Road Waterford, MI 48327 $244,999 1,984 sq. ft. 8,276 sq. ft. $123
2018-06-07 Single Family Ranch 7195 Pontiac Lake Road Waterford, MI 48327 $199,900 1,342 sq. ft. 118,048 sq. ft. $149
2018-06-06 Single Family Contemporary 331 Marion Avenue Waterford, MI 48328 $149,900 1,424 sq. ft. 13,068 sq. ft. $105
2018-06-06 Single Family Contemporary; Ranch 3550 San Mateo Road Waterford, MI 48329 $229,900 1,315 sq. ft. 10,019 sq. ft. $175
2018-06-06 Single Family Ranch 6600 Maceday Drive Waterford, MI 48329 $259,900 1,285 sq. ft. 12,197 sq. ft. $202
2018-06-06 Single Family Colonial 6927 Tanglewood Waterford, MI 48327 $234,900 1,739 sq. ft. $135
2018-06-05 Single Family Ranch 4214 Lamont Drive Waterford, MI 48329 $475,000 1,452 sq. ft. 26,136 sq. ft. $327
2018-06-02 Single Family Colonial 3726 Rutherford Court Waterford, MI 48329 $364,900 2,138 sq. ft. 10,019 sq. ft. $171
2018-06-02 Single Family Ranch 3434 Airport Road Waterford, MI 48329 $174,900 1,564 sq. ft. 7,841 sq. ft. $112
2018-06-02 Single Family Ranch 431 Winding Drive Waterford, MI 48328 $139,900 1,372 sq. ft. 7,405 sq. ft. $102
2018-06-01 Single Family Ranch 1227 Tull Road Waterford, MI 48327 $184,900 1,350 sq. ft. 40,075 sq. ft. $137
2018-05-31 Single Family Colonial 1070 Tecumseh Avenue Waterford, MI 48327 $134,900 1,098 sq. ft. 6,970 sq. ft. $123
2018-05-31 Single Family 6035 Eldridge Drive Waterford, MI 48327 $1,097,000 2,706 sq. ft. 580,219 sq. ft. $405
2018-05-31 Single Family Ranch 1400 Bamford Drive Waterford, MI 48328 $249,000 1,300 sq. ft. 7,841 sq. ft. $192
2018-05-31 Single Family Contemporary 1339 Forest Bay Drive Waterford, MI 48328 $749,999 3,538 sq. ft. 15,246 sq. ft. $212
2018-05-31 Single Family Ranch 4881 Fiddle Avenue Waterford, MI 48328 $125,000 1,308 sq. ft. 17,424 sq. ft. $96
2018-05-30 Single Family Tudor 4160 Shore Street Waterford, MI 48328 $1,249,000 3,785 sq. ft. 14,375 sq. ft. $330
2018-05-29 Single Family 3294 Gilchrist Waterford, MI 48328 $465,000 3,155 sq. ft. 13,939 sq. ft. $147
2018-05-26 Single Family Ranch 2864 Rowan Boulevard Waterford, MI 48329 $259,900 931 sq. ft. $279
2018-05-25 Single Family Ranch 4837 Motorway Drive Waterford, MI 48328 $675,000 3,787 sq. ft. 27,007 sq. ft. $178
2018-05-25 Single Family Ranch 2831 Barkman Drive Waterford, MI 48329 $495,000 2,000 sq. ft. 54,014 sq. ft. $248
2018-05-24 Single Family Ranch 497 Beverly Island Drive Waterford, MI 48328 $889,900 1,480 sq. ft. 43,996 sq. ft. $601
2018-05-23 Single Family Contemporary 1353 Grinnell Avenue Waterford, MI 48328 $1,375,000 5,093 sq. ft. 45,738 sq. ft. $270
2018-05-19 Single Family Bungalow 3521 Lincolnshire Road Waterford, MI 48328 $150,000 1,080 sq. ft. 31,363 sq. ft. $139
2018-05-19 Single Family Raised Ranch; Ranch 3930 Lamont Drive Waterford, MI 48329 $399,999 1,020 sq. ft. 8,712 sq. ft. $392
2018-05-18 Single Family Tudor 3558 Lakeshore Drive Waterford, MI 48329 $799,000 5,614 sq. ft. 10,454 sq. ft. $142
2018-05-16 Single Family Bungalow 4354 Louella Drive Waterford, MI 48329 $104,900 1,232 sq. ft. 4,792 sq. ft. $85
2018-05-12 Single Family Colonial 2551 Voorheis Road Waterford, MI 48328 $184,900 2,522 sq. ft. 23,087 sq. ft. $73
2018-05-07 Single Family Ranch 3266 Gilchrist Waterford, MI 48328 $389,000 1,975 sq. ft. 12,197 sq. ft. $197
2018-05-06 Single Family 7266 Sandy Beach Drive Waterford, MI 48329 $167,750 1,386 sq. ft. 9,583 sq. ft. $121
2018-05-06 Single Family Colonial; Contemporary 5010 Sherwell Drive Waterford, MI 48327 $1,795,000 5,137 sq. ft. 23,958 sq. ft. $349
2018-05-06 Single Family Contemporary 2839 Williams Lake Road Waterford, MI 48329 $254,900 1,726 sq. ft. 23,958 sq. ft. $148
2018-05-06 Single Family Bungalow 3895 Florman Waterford, MI 48329 $159,900 1,301 sq. ft. 23,522 sq. ft. $123
2018-04-24 Single Family Bungalow 2244 Montroyal Waterford, MI 48328 $124,900 1,423 sq. ft. $88
2018-04-24 Single Family Colonial 1397 Rossdale Drive Waterford, MI 48328 $350,000 1,599 sq. ft. 3,049 sq. ft. $219
2018-04-19 Single Family Bungalow 60 Coleman Waterford, MI 48328 $125,000 1,001 sq. ft. 6,534 sq. ft. $125
2018-04-17 Single Family Colonial 308 Beverly Island Drive Waterford, MI 48328 $583,995 3,014 sq. ft. 13,504 sq. ft. $194
2018-04-13 Single Family Colonial 2908 Lola Court Waterford, MI 48329 $499,900 3,249 sq. ft. 16,988 sq. ft. $154
2018-04-04 Single Family Colonial 3124 Pine Tree Court Waterford, MI 48329 $539,900 3,717 sq. ft. 13,504 sq. ft. $145
2018-03-21 Single Family Ranch 3798 Newport Way Drive Waterford, MI 48329 $689,000 2,419 sq. ft. $285
2018-03-20 Single Family Ranch 3414 Curwood Street Waterford, MI 48329 $98,700 650 sq. ft. 4,792 sq. ft. $152
2018-03-01 Single Family Colonial 2881 Lansdowne Road Waterford, MI 48329 $799,000 5,204 sq. ft. 17,424 sq. ft. $154
2018-02-25 Single Family Ranch 4784 Sylvester Waterford, MI 48329 $235,000 1,503 sq. ft. 17,424 sq. ft. $156
2018-02-22 Single Family Contemporary 3019 Saint Jude Drive Waterford, MI 48329 $599,000 3,334 sq. ft. 21,780 sq. ft. $180
2018-02-08 Single Family Ranch 2394 Silver Circle Waterford, MI 48328 $125,000 779 sq. ft. 4,792 sq. ft. $160
2018-01-22 Single Family Colonial 7082 Wade Street Waterford, MI 48327 $299,900 2,250 sq. ft. $133
2018-01-22 Single Family Ranch 7056 Wade Street Waterford, MI 48327 $279,900 1,585 sq. ft. 9,583 sq. ft. $177
2017-12-20 Single Family Colonial 3855 Iris Waterford, MI 48329 $399,900 2,030 sq. ft. 5,227 sq. ft. $197
2017-12-05 Single Family 5715 Prentis Road Waterford, MI 48327 $189,900 1,652 sq. ft. 6,970 sq. ft. $115
2017-11-20 Single Family Ranch 6741 Highland Road Waterford, MI 48327 $399,900 2,207 sq. ft. 219,107 sq. ft. $181
2017-11-14 Single Family Contemporary 890 Tyrone Avenue Waterford, MI 48328 $219,900 2,058 sq. ft. 8,712 sq. ft. $107
2017-09-08 Single Family Ranch 6020 Waterfront Drive Waterford, MI 48329 $129,900 840 sq. ft. 7,405 sq. ft. $155
2017-09-01 Single Family Contemporary 4562 Shore Street Waterford, MI 48328 $1,500,000 4,651 sq. ft. 22,651 sq. ft. $323
2017-03-24 Single Family Colonial; Contemporary 3184 Pine Tree Court Waterford, MI 48329 $850,000 4,464 sq. ft. 11,761 sq. ft. $190
2017-03-20 Single Family Ranch 6579 Longworth Waterford, MI 48329 $1,999,000 2,390 sq. ft. 43,560 sq. ft. $836
2016-08-13 Single Family Colonial 2841 Moosewood Drive Waterford, MI 48329 $274,900 1,850 sq. ft. $149